createdAt,value
2023-04-01T00:01:47.171Z,3.25
2023-04-01T00:04:16.870Z,3.28
2023-04-01T00:06:48.507Z,5.95
2023-04-01T00:09:19.141Z,3.78
2023-04-01T00:11:49.452Z,2.85
2023-04-01T00:14:19.641Z,2.45
2023-04-01T00:16:49.864Z,3.05
2023-04-01T00:19:20.158Z,4.55
2023-04-01T00:21:50.285Z,5.75
2023-04-01T00:24:20.414Z,5.22
2023-04-01T00:26:50.511Z,4.45
2023-04-01T00:29:20.608Z,3.40
2023-04-01T00:31:50.967Z,4.07
2023-04-01T00:34:21.620Z,4.88
2023-04-01T00:36:53.495Z,3.55
2023-04-01T00:39:23.692Z,7.50
2023-04-01T00:41:54.137Z,6.65
2023-04-01T00:44:33.954Z,5.65
2023-04-01T00:47:04.627Z,4.93
2023-04-01T00:49:46.278Z,3.22
2023-04-01T00:52:26.038Z,3.85
2023-04-01T00:55:06.448Z,3.60
2023-04-01T00:57:43.549Z,2.50
2023-04-01T01:00:16.216Z,3.40
2023-04-01T01:02:52.352Z,4.82
2023-04-01T01:05:49.541Z,7.00
2023-04-01T01:09:08.734Z,6.07
2023-04-01T01:12:18.784Z,5.55
2023-04-01T01:15:27.949Z,5.20
2023-04-01T01:18:22.979Z,5.32
2023-04-01T01:21:51.971Z,4.03
2023-04-01T01:25:10.678Z,4.88
2023-04-01T01:28:10.380Z,7.43
2023-04-01T01:31:17.751Z,3.30
2023-04-01T01:34:27.994Z,11.13
2023-04-01T01:39:40.212Z,4.50
2023-04-01T01:42:21.811Z,3.70
2023-04-01T01:44:56.147Z,3.17
2023-04-01T01:47:27.040Z,3.60
2023-04-01T01:49:58.307Z,4.63
2023-04-01T01:52:29.643Z,3.95
2023-04-01T01:54:59.841Z,4.95
2023-04-01T01:57:40.952Z,3.97
2023-04-01T02:00:14.780Z,5.88
2023-04-01T02:02:50.798Z,4.85
2023-04-01T02:05:28.130Z,3.58
2023-04-01T02:08:35.108Z,8.93
2023-04-01T02:11:17.087Z,4.72
2023-04-01T02:14:11.437Z,4.13
2023-04-01T02:17:08.442Z,4.40
2023-04-01T02:19:53.291Z,5.72
2023-04-01T02:22:31.269Z,2.63
2023-04-01T02:25:14.208Z,3.78
2023-04-01T02:27:46.942Z,5.07
2023-04-01T02:30:18.556Z,3.83
2023-04-01T02:32:50.813Z,4.20
2023-04-01T02:35:21.607Z,3.80
2023-04-01T02:37:55.866Z,4.50
2023-04-01T02:40:26.108Z,3.47
2023-04-01T02:42:56.388Z,3.75
2023-04-01T02:45:26.603Z,4.18
2023-04-01T02:47:56.712Z,5.18
2023-04-01T02:50:26.940Z,3.15
2023-04-01T02:52:57.303Z,5.68
2023-04-01T02:55:27.644Z,4.45
2023-04-01T02:57:58.289Z,3.13
2023-04-01T03:00:28.667Z,4.80
2023-04-01T03:02:59.108Z,5.25
2023-04-01T03:05:30.133Z,5.63
2023-04-01T03:08:00.369Z,4.18
2023-04-01T03:10:28.741Z,8.25
2023-04-01T03:12:57.091Z,5.28
2023-04-01T03:15:25.763Z,4.63
2023-04-01T03:17:55.586Z,3.47
2023-04-01T03:20:22.925Z,4.00
2023-04-01T03:22:51.322Z,3.08
2023-04-01T03:25:20.036Z,6.93
2023-04-01T03:27:48.122Z,5.00
2023-04-01T03:30:16.808Z,4.18
2023-04-01T03:32:45.055Z,4.53
2023-04-01T03:35:13.512Z,2.92
2023-04-01T03:37:42.036Z,5.03
2023-04-01T03:40:11.648Z,4.15
2023-04-01T03:42:41.853Z,4.63
2023-04-01T03:45:15.608Z,2.20
2023-04-01T03:47:46.340Z,4.20
2023-04-01T03:50:16.603Z,2.85
2023-04-01T03:52:46.933Z,4.32
2023-04-01T03:55:19.160Z,4.32
2023-04-01T03:57:49.246Z,4.47
2023-04-01T04:00:19.782Z,3.90
2023-04-01T04:02:50.068Z,5.20
2023-04-01T04:05:20.220Z,6.63
2023-04-01T04:07:51.340Z,5.50
2023-04-01T04:10:24.333Z,3.05
2023-04-01T04:12:54.570Z,4.47
2023-04-01T04:15:25.052Z,6.28
2023-04-01T04:17:55.333Z,3.05
2023-04-01T04:20:25.622Z,6.20
2023-04-01T04:22:55.724Z,5.32
2023-04-01T04:25:26.071Z,8.85
2023-04-01T04:27:56.220Z,5.43
2023-04-01T04:30:26.323Z,5.35
2023-04-01T04:32:56.752Z,6.00
2023-04-01T04:35:26.859Z,5.45
2023-04-01T04:37:56.927Z,3.97
2023-04-01T04:40:27.102Z,5.75
2023-04-01T04:42:57.184Z,4.72
2023-04-01T04:45:27.308Z,4.55
2023-04-01T04:47:57.886Z,5.85
2023-04-01T04:50:28.003Z,3.03
2023-04-01T04:52:58.106Z,5.50
2023-04-01T04:55:28.275Z,4.38
2023-04-01T04:57:58.468Z,6.53
2023-04-01T05:00:28.592Z,4.78
2023-04-01T05:02:58.824Z,5.22
2023-04-01T05:05:27.159Z,8.13
2023-04-01T05:07:55.744Z,8.05
2023-04-01T05:10:24.055Z,8.00
2023-04-01T05:12:52.446Z,6.30
2023-04-01T05:15:21.017Z,7.75
2023-04-01T05:17:49.342Z,6.95
2023-04-01T05:20:18.447Z,4.18
2023-04-01T05:22:46.162Z,4.22
2023-04-01T05:25:14.642Z,4.50
2023-04-01T05:27:43.011Z,6.63
2023-04-01T05:30:12.483Z,8.05
2023-04-01T05:32:39.963Z,5.15
2023-04-01T05:35:08.929Z,7.10
2023-04-01T05:37:37.852Z,10.00
2023-04-01T05:40:07.194Z,7.05
2023-04-01T05:42:38.362Z,3.85
2023-04-01T05:45:10.084Z,10.07
2023-04-01T05:47:40.269Z,5.63
2023-04-01T05:50:12.164Z,5.68
2023-04-01T05:52:42.440Z,8.30
2023-04-01T05:55:13.060Z,6.57
2023-04-01T05:57:41.021Z,4.00
2023-04-01T06:00:10.808Z,6.20
2023-04-01T06:02:43.047Z,7.88
2023-04-01T06:05:26.605Z,6.90
2023-04-01T06:08:17.583Z,7.63
2023-04-01T06:11:25.809Z,6.47
2023-04-01T06:14:56.595Z,3.42
2023-04-01T06:18:30.602Z,4.82
2023-04-01T06:22:20.905Z,9.88
2023-04-01T06:25:11.755Z,5.60
2023-04-01T06:28:36.740Z,10.65
2023-04-01T06:31:45.524Z,6.72
2023-04-01T06:35:05.165Z,4.25
2023-04-01T06:38:36.187Z,8.90
2023-04-01T06:41:46.226Z,6.55
2023-04-01T06:44:46.612Z,12.90
2023-04-01T06:47:39.541Z,8.73
2023-04-01T06:50:30.669Z,6.57
2023-04-01T06:53:57.532Z,5.05
2023-04-01T06:56:31.716Z,10.43
2023-04-01T06:59:28.535Z,6.65
2023-04-01T07:02:11.012Z,5.72
2023-04-01T07:04:54.040Z,4.63
2023-04-01T07:07:51.515Z,7.18
2023-04-01T07:10:44.217Z,5.50
2023-04-01T07:13:33.937Z,9.38
2023-04-01T07:16:31.017Z,9.63
2023-04-01T07:20:06.812Z,4.60
2023-04-01T07:22:50.405Z,7.55
2023-04-01T07:25:53.085Z,3.00
2023-04-01T07:28:23.604Z,7.68
2023-04-01T07:31:22.160Z,5.70
2023-04-01T07:34:17.010Z,5.57
2023-04-01T07:37:03.881Z,3.33
2023-04-01T07:40:22.062Z,5.70
2023-04-01T07:43:32.222Z,4.75
2023-04-01T07:46:22.243Z,5.50
2023-04-01T07:49:23.118Z,5.53
2023-04-01T07:52:34.573Z,6.80
2023-04-01T07:55:29.677Z,5.05
2023-04-01T07:59:05.974Z,6.70
2023-04-01T08:02:22.428Z,6.00
2023-04-01T08:05:38.687Z,5.28
2023-04-01T08:08:49.024Z,6.35
2023-04-01T08:12:03.536Z,8.68
2023-04-01T08:15:16.013Z,4.85
2023-04-01T08:18:26.533Z,4.43
2023-04-01T08:21:14.481Z,3.53
2023-04-01T08:23:59.870Z,5.85
2023-04-01T08:26:49.466Z,6.50
2023-04-01T08:29:51.179Z,4.63
2023-04-01T08:32:42.626Z,6.95
2023-04-01T08:35:49.239Z,2.65
2023-04-01T08:38:35.646Z,5.20
2023-04-01T08:41:49.884Z,3.75
2023-04-01T08:44:37.719Z,4.03
2023-04-01T08:48:00.598Z,9.48
2023-04-01T08:51:46.268Z,3.75
2023-04-01T08:54:39.640Z,5.80
2023-04-01T08:57:57.842Z,7.82
2023-04-01T09:00:51.173Z,2.33
2023-04-01T09:03:56.042Z,4.93
2023-04-01T09:07:12.779Z,4.05
2023-04-01T09:10:51.531Z,3.45
2023-04-01T09:14:35.870Z,6.00
2023-04-01T09:17:53.511Z,6.90
2023-04-01T09:21:16.066Z,3.47
2023-04-01T09:24:42.900Z,3.42
2023-04-01T09:27:53.830Z,2.45
2023-04-01T09:30:50.819Z,4.03
2023-04-01T09:33:47.703Z,5.15
2023-04-01T09:36:47.088Z,5.32
2023-04-01T09:39:51.544Z,6.53
2023-04-01T09:43:06.132Z,6.40
2023-04-01T09:45:53.735Z,6.55
2023-04-01T09:48:47.942Z,7.97
2023-04-01T09:51:53.003Z,7.35
2023-04-01T09:54:53.791Z,9.35
2023-04-01T09:58:27.790Z,7.35
2023-04-01T10:01:53.914Z,8.38
2023-04-01T10:05:19.328Z,9.80
2023-04-01T10:08:57.022Z,10.77
2023-04-01T10:12:08.867Z,9.55
2023-04-01T10:15:34.985Z,8.73
2023-04-01T10:19:05.499Z,10.98
2023-04-01T10:22:18.299Z,10.65
2023-04-01T10:25:12.644Z,12.23
2023-04-01T10:28:47.350Z,9.80
2023-04-01T10:32:11.519Z,11.13
2023-04-01T10:35:47.588Z,13.00
2023-04-01T10:38:35.853Z,10.45
2023-04-01T10:41:36.553Z,10.95
2023-04-01T10:45:11.661Z,11.25
2023-04-01T10:48:22.635Z,13.38
2023-04-01T10:51:36.553Z,14.35
2023-04-01T10:54:40.989Z,13.63
2023-04-01T10:57:53.442Z,13.02
2023-04-01T11:00:54.250Z,15.27
2023-04-01T11:03:36.039Z,13.98
2023-04-01T11:06:52.725Z,15.88
2023-04-01T11:10:06.766Z,13.57
2023-04-01T11:13:09.974Z,14.73
2023-04-01T11:16:47.325Z,12.45
2023-04-01T11:20:00.715Z,14.35
2023-04-01T11:23:22.098Z,13.10
2023-04-01T11:26:23.593Z,17.20
2023-04-01T11:29:35.934Z,15.43
2023-04-01T11:32:43.205Z,13.63
2023-04-01T11:36:20.975Z,11.63
2023-04-01T11:39:32.527Z,10.73
2023-04-01T11:42:36.208Z,11.90
2023-04-01T11:45:35.287Z,9.25
2023-04-01T11:49:10.761Z,9.10
2023-04-01T11:52:23.427Z,9.45
2023-04-01T11:55:27.127Z,8.63
2023-04-01T11:58:23.686Z,9.63
2023-04-01T12:01:21.018Z,11.05
2023-04-01T12:04:58.094Z,9.52
2023-04-01T12:07:40.184Z,9.82
2023-04-01T12:11:16.916Z,6.68
2023-04-01T12:14:38.112Z,7.38
2023-04-01T12:17:46.574Z,9.63
2023-04-01T12:21:04.604Z,7.78
2023-04-01T12:24:27.358Z,6.03
2023-04-01T12:27:54.930Z,7.60
2023-04-01T12:31:17.082Z,5.90
2023-04-01T12:34:45.551Z,6.47
2023-04-01T12:38:14.849Z,5.75
2023-04-01T12:41:58.103Z,7.70
2023-04-01T12:45:04.596Z,4.78
2023-04-01T12:48:07.545Z,3.90
2023-04-01T12:51:22.197Z,5.07
2023-04-01T12:54:34.938Z,3.75
2023-04-01T12:57:45.530Z,5.13
2023-04-01T13:01:06.806Z,4.95
2023-04-01T13:04:32.809Z,6.00
2023-04-01T13:07:50.929Z,6.53
2023-04-01T13:10:51.417Z,6.32
2023-04-01T13:14:31.179Z,5.15
2023-04-01T13:18:02.331Z,4.97
2023-04-01T13:21:09.934Z,5.03
2023-04-01T13:24:36.900Z,3.92
2023-04-01T13:27:42.068Z,4.18
2023-04-01T13:30:43.796Z,5.10
2023-04-01T13:33:49.094Z,4.88
2023-04-01T13:36:37.328Z,4.95
2023-04-01T13:39:46.515Z,5.78
2023-04-01T13:43:03.874Z,6.78
2023-04-01T13:45:49.889Z,4.78
2023-04-01T13:49:18.789Z,4.95
2023-04-01T13:52:03.736Z,6.35
2023-04-01T13:55:07.387Z,5.82
2023-04-01T13:58:22.444Z,7.25
2023-04-01T14:01:29.251Z,8.23
2023-04-01T14:04:31.777Z,12.48
2023-04-01T14:07:35.860Z,12.63
2023-04-01T14:10:42.512Z,11.45
2023-04-01T14:13:49.581Z,11.98
2023-04-01T14:16:40.943Z,13.65
2023-04-01T14:19:30.081Z,10.43
2023-04-01T14:22:40.763Z,11.63
2023-04-01T14:26:06.948Z,13.55
2023-04-01T14:29:25.466Z,11.10
2023-04-01T14:33:15.590Z,12.90
2023-04-01T14:36:15.742Z,11.32
2023-04-01T14:39:43.083Z,13.48
2023-04-01T14:42:50.057Z,13.68
2023-04-01T14:46:03.760Z,9.55
2023-04-01T14:48:52.921Z,11.85
2023-04-01T14:51:38.750Z,11.48
2023-04-01T14:54:39.342Z,12.98
2023-04-01T14:57:31.624Z,10.45
2023-04-01T15:00:20.213Z,9.07
2023-04-01T15:03:15.137Z,9.05
2023-04-01T15:07:20.511Z,8.25
2023-04-01T15:10:25.991Z,11.13
2023-04-01T15:13:13.938Z,9.55
2023-04-01T15:16:04.910Z,11.25
2023-04-01T15:19:24.950Z,10.45
2023-04-01T15:22:27.151Z,9.93
2023-04-01T15:25:25.032Z,9.30
2023-04-01T15:29:05.695Z,7.50
2023-04-01T15:31:59.325Z,7.40
2023-04-01T15:34:52.008Z,8.30
2023-04-01T15:37:41.344Z,8.50
2023-04-01T15:43:45.108Z,8.63
2023-04-01T15:46:46.251Z,9.65
2023-04-01T15:49:32.009Z,7.82
2023-04-01T15:52:39.900Z,9.45
2023-04-01T15:55:42.444Z,9.85
2023-04-01T15:58:45.492Z,11.38
2023-04-01T16:02:40.384Z,10.27
2023-04-01T16:05:56.717Z,10.30
2023-04-01T16:08:56.902Z,9.25
2023-04-01T16:12:05.369Z,9.85
2023-04-01T16:16:05.641Z,9.90
2023-04-01T16:19:05.992Z,9.65
2023-04-01T16:22:03.519Z,9.18
2023-04-01T16:25:01.244Z,7.57
2023-04-01T16:28:06.599Z,7.70
2023-04-01T16:31:08.203Z,8.40
2023-04-01T16:34:30.613Z,8.25
2023-04-01T16:37:40.868Z,11.18
2023-04-01T16:40:59.223Z,10.27
2023-04-01T16:43:48.975Z,9.98
2023-04-01T16:46:27.857Z,11.13
2023-04-01T16:49:36.300Z,12.30
2023-04-01T16:52:12.379Z,11.63
2023-04-01T16:55:21.382Z,16.40
2023-04-01T16:58:02.237Z,14.85
2023-04-01T17:00:42.559Z,14.95
2023-04-01T17:03:40.837Z,15.00
2023-04-01T17:06:40.447Z,13.65
2023-04-01T17:09:45.589Z,13.35
2023-04-01T17:12:34.663Z,17.35
2023-04-01T17:16:13.860Z,14.65
2023-04-01T17:19:27.226Z,12.48
2023-04-01T17:23:00.242Z,11.85
2023-04-01T17:26:30.088Z,13.93
2023-04-01T17:29:41.004Z,12.05
2023-04-01T17:33:01.462Z,13.25
2023-04-01T17:36:46.871Z,12.40
2023-04-01T17:40:08.789Z,14.95
2023-04-01T17:43:24.099Z,14.15
2023-04-01T17:46:20.909Z,11.00
2023-04-01T17:49:28.051Z,11.07
2023-04-01T17:52:45.568Z,13.10
2023-04-01T17:55:55.142Z,14.32
2023-04-01T17:59:20.009Z,15.10
2023-04-01T18:02:43.175Z,12.45
2023-04-01T18:05:49.494Z,12.20
2023-04-01T18:09:27.114Z,11.07
2023-04-01T18:12:16.684Z,9.80
2023-04-01T18:14:55.611Z,13.73
2023-04-01T18:17:55.410Z,14.63
2023-04-01T18:21:01.600Z,12.52
2023-04-01T18:24:02.385Z,13.68
2023-04-01T18:26:40.845Z,11.57
2023-04-01T18:29:56.028Z,11.48
2023-04-01T18:32:50.060Z,11.13
2023-04-01T18:35:42.005Z,13.02
2023-04-01T18:38:32.603Z,11.77
2023-04-01T18:41:57.200Z,11.68
2023-04-01T18:44:49.327Z,12.80
2023-04-01T18:48:05.172Z,9.90
2023-04-01T18:50:48.462Z,9.30
2023-04-01T18:53:43.729Z,8.48
2023-04-01T18:56:35.119Z,9.90
2023-04-01T18:59:43.552Z,7.47
2023-04-01T19:03:09.248Z,8.30
2023-04-01T19:05:50.940Z,8.23
2023-04-01T19:08:42.235Z,8.63
2023-04-01T19:11:50.776Z,8.68
2023-04-01T19:15:08.513Z,7.57
2023-04-01T19:18:29.990Z,6.95
2023-04-01T19:21:19.337Z,8.57
2023-04-01T19:27:09.961Z,14.05
2023-04-01T19:30:18.037Z,13.50
2023-04-01T19:33:24.226Z,12.38
2023-04-01T19:36:24.443Z,10.70
2023-04-01T19:39:21.448Z,11.80
2023-04-01T19:42:20.839Z,9.23
2023-04-01T19:45:33.729Z,8.80
2023-04-01T19:48:41.487Z,9.73
2023-04-01T19:51:35.055Z,10.13
2023-04-01T19:55:01.189Z,10.73
2023-04-01T19:58:14.586Z,11.52
2023-04-01T20:00:59.788Z,13.20
2023-04-01T20:04:05.891Z,17.25
2023-04-01T20:07:44.908Z,14.10
2023-04-01T20:10:53.338Z,12.45
2023-04-01T20:13:57.506Z,10.30
2023-04-01T20:17:10.159Z,11.85
2023-04-01T20:20:04.604Z,10.35
2023-04-01T20:22:44.635Z,11.55
2023-04-01T20:26:03.492Z,13.27
2023-04-01T20:28:51.056Z,13.75
2023-04-01T20:31:41.303Z,12.02
2023-04-01T20:34:45.742Z,12.45
2023-04-01T20:37:29.669Z,11.73
2023-04-01T20:40:33.481Z,13.15
2023-04-01T20:43:59.414Z,15.13
2023-04-01T20:46:53.187Z,10.77
2023-04-01T20:49:42.519Z,14.73
2023-04-01T20:52:22.868Z,17.73
2023-04-01T20:55:03.310Z,16.83
2023-04-01T20:57:48.565Z,16.67
2023-04-01T21:00:41.938Z,14.90
2023-04-01T21:03:57.832Z,13.50
2023-04-01T21:07:02.192Z,16.45
2023-04-01T21:10:08.401Z,15.40
2023-04-01T21:13:22.121Z,15.95
2023-04-01T21:16:54.293Z,15.88
2023-04-01T21:19:57.278Z,14.70
2023-04-01T21:23:16.299Z,13.32
2023-04-01T21:26:24.040Z,15.00
2023-04-01T21:29:43.469Z,12.02
2023-04-01T21:32:34.660Z,15.65
2023-04-01T21:35:53.231Z,15.63
2023-04-01T21:38:52.061Z,14.07
2023-04-01T21:42:03.480Z,14.27
2023-04-01T21:44:49.939Z,13.93
2023-04-01T21:48:28.651Z,14.48
2023-04-01T21:52:16.279Z,17.73
2023-04-01T21:55:51.706Z,18.42
2023-04-01T21:59:03.140Z,15.98
2023-04-01T22:01:53.640Z,17.58
2023-04-01T22:05:35.123Z,14.43
2023-04-01T22:09:08.424Z,18.10
2023-04-01T22:11:56.898Z,15.82
2023-04-01T22:14:57.840Z,12.23
2023-04-01T22:17:59.153Z,11.88
2023-04-01T22:21:06.343Z,15.98
2023-04-01T22:23:59.406Z,12.88
2023-04-01T22:26:49.884Z,14.55
2023-04-01T22:29:52.582Z,12.73
2023-04-01T22:33:06.926Z,17.30
2023-04-01T22:36:32.091Z,14.43
2023-04-01T22:40:00.570Z,13.30
2023-04-01T22:43:09.964Z,13.77
2023-04-01T22:45:51.804Z,12.30
2023-04-01T22:48:42.826Z,12.60
2023-04-01T22:51:30.572Z,9.75
2023-04-01T22:54:20.582Z,11.93
2023-04-01T22:57:09.739Z,11.52
2023-04-01T23:00:22.744Z,10.90
2023-04-01T23:03:17.775Z,9.75
2023-04-01T23:06:01.829Z,11.35
2023-04-01T23:09:28.968Z,10.88
2023-04-01T23:12:22.838Z,12.43
2023-04-01T23:15:01.653Z,10.35
2023-04-01T23:18:31.394Z,9.35
2023-04-01T23:21:39.500Z,9.68
2023-04-01T23:24:45.636Z,9.63
2023-04-01T23:27:38.831Z,12.75
2023-04-01T23:30:50.577Z,13.07
2023-04-01T23:33:24.803Z,11.43
2023-04-01T23:36:22.645Z,9.23
2023-04-01T23:38:55.476Z,7.45
2023-04-01T23:41:34.279Z,8.02
2023-04-01T23:44:14.655Z,9.60
2023-04-01T23:46:49.994Z,9.88
2023-04-01T23:49:50.360Z,10.18
2023-04-01T23:52:31.400Z,11.68
2023-04-01T23:55:25.551Z,8.85
2023-04-01T23:58:18.828Z,9.52
